sensor_id;sensor_type;location;lat;lon;timestamp;temperature;humidity
22114;DHT22;11223;49.968;9.062;2023-04-06T00:01:36;-0.10;99.90
22114;DHT22;11223;49.968;9.062;2023-04-06T00:04:02;-0.10;99.90
22114;DHT22;11223;49.968;9.062;2023-04-06T00:06:27;-0.10;99.90
22114;DHT22;11223;49.968;9.062;2023-04-06T00:08:54;-0.10;99.90
22114;DHT22;11223;49.968;9.062;2023-04-06T00:11:19;-0.10;99.90
22114;DHT22;11223;49.968;9.062;2023-04-06T00:13:45;-0.10;99.90
22114;DHT22;11223;49.968;9.062;2023-04-06T00:16:11;-0.10;99.90
22114;DHT22;11223;49.968;9.062;2023-04-06T00:18:36;-0.10;99.90
22114;DHT22;11223;49.968;9.062;2023-04-06T00:21:02;-0.10;99.90
22114;DHT22;11223;49.968;9.062;2023-04-06T00:23:28;-0.10;99.90
22114;DHT22;11223;49.968;9.062;2023-04-06T00:25:53;-0.10;99.90
22114;DHT22;11223;49.968;9.062;2023-04-06T00:28:19;-0.10;99.90
22114;DHT22;11223;49.968;9.062;2023-04-06T00:30:50;-0.10;99.90
22114;DHT22;11223;49.968;9.062;2023-04-06T00:33:21;-0.20;99.90
22114;DHT22;11223;49.968;9.062;2023-04-06T00:35:46;-0.20;99.90
22114;DHT22;11223;49.968;9.062;2023-04-06T00:38:13;-0.20;99.90
22114;DHT22;11223;49.968;9.062;2023-04-06T00:40:39;-0.20;99.90
22114;DHT22;11223;49.968;9.062;2023-04-06T00:43:05;-0.20;99.90
22114;DHT22;11223;49.968;9.062;2023-04-06T00:45:31;-0.20;99.90
22114;DHT22;11223;49.968;9.062;2023-04-06T00:47:57;-0.20;99.90
22114;DHT22;11223;49.968;9.062;2023-04-06T00:50:23;-0.20;99.90
22114;DHT22;11223;49.968;9.062;2023-04-06T00:52:48;-0.30;99.90
22114;DHT22;11223;49.968;9.062;2023-04-06T00:55:14;-0.30;99.90
22114;DHT22;11223;49.968;9.062;2023-04-06T00:57:40;-0.40;99.90
22114;DHT22;11223;49.968;9.062;2023-04-06T01:00:06;-0.30;99.90
22114;DHT22;11223;49.968;9.062;2023-04-06T01:02:32;-0.30;99.90
22114;DHT22;11223;49.968;9.062;2023-04-06T01:04:57;-0.40;99.90
22114;DHT22;11223;49.968;9.062;2023-04-06T01:07:23;-0.30;99.90
22114;DHT22;11223;49.968;9.062;2023-04-06T01:09:49;-0.40;99.90
22114;DHT22;11223;49.968;9.062;2023-04-06T01:12:15;-0.30;99.90
22114;DHT22;11223;49.968;9.062;2023-04-06T01:14:41;-0.30;99.90
22114;DHT22;11223;49.968;9.062;2023-04-06T01:17:06;-0.30;99.90
22114;DHT22;11223;49.968;9.062;2023-04-06T01:19:32;-0.40;99.90
22114;DHT22;11223;49.968;9.062;2023-04-06T01:21:57;-0.40;99.90
22114;DHT22;11223;49.968;9.062;2023-04-06T01:24:23;-0.40;99.90
22114;DHT22;11223;49.968;9.062;2023-04-06T01:26:48;-0.40;99.90
22114;DHT22;11223;49.968;9.062;2023-04-06T01:29:14;-0.40;99.90
22114;DHT22;11223;49.968;9.062;2023-04-06T01:31:40;-0.40;99.90
22114;DHT22;11223;49.968;9.062;2023-04-06T01:34:06;-0.50;99.90
22114;DHT22;11223;49.968;9.062;2023-04-06T01:36:31;-0.50;99.90
22114;DHT22;11223;49.968;9.062;2023-04-06T01:38:57;-0.50;99.90
22114;DHT22;11223;49.968;9.062;2023-04-06T01:41:22;-0.50;99.90
22114;DHT22;11223;49.968;9.062;2023-04-06T01:43:48;-0.60;99.90
22114;DHT22;11223;49.968;9.062;2023-04-06T01:46:15;-0.60;99.90
22114;DHT22;11223;49.968;9.062;2023-04-06T01:48:41;-0.60;99.90
22114;DHT22;11223;49.968;9.062;2023-04-06T01:51:06;-0.60;99.90
22114;DHT22;11223;49.968;9.062;2023-04-06T01:53:32;-0.60;99.90
22114;DHT22;11223;49.968;9.062;2023-04-06T01:55:57;-0.60;99.90
22114;DHT22;11223;49.968;9.062;2023-04-06T01:58:23;-0.70;99.90
22114;DHT22;11223;49.968;9.062;2023-04-06T02:00:48;-0.70;99.90
22114;DHT22;11223;49.968;9.062;2023-04-06T02:03:14;-0.70;99.90
22114;DHT22;11223;49.968;9.062;2023-04-06T02:05:40;-0.70;99.90
22114;DHT22;11223;49.968;9.062;2023-04-06T02:08:06;-0.80;99.90
22114;DHT22;11223;49.968;9.062;2023-04-06T02:10:33;-0.80;99.90
22114;DHT22;11223;49.968;9.062;2023-04-06T02:12:59;-0.80;99.90
22114;DHT22;11223;49.968;9.062;2023-04-06T02:15:25;-0.80;99.90
22114;DHT22;11223;49.968;9.062;2023-04-06T02:17:51;-0.80;99.90
22114;DHT22;11223;49.968;9.062;2023-04-06T02:20:16;-0.80;99.90
22114;DHT22;11223;49.968;9.062;2023-04-06T02:22:42;-0.80;99.90
22114;DHT22;11223;49.968;9.062;2023-04-06T02:25:08;-0.80;99.90
22114;DHT22;11223;49.968;9.062;2023-04-06T02:27:34;-0.80;99.90
22114;DHT22;11223;49.968;9.062;2023-04-06T02:29:59;-0.80;99.90
22114;DHT22;11223;49.968;9.062;2023-04-06T02:32:25;-0.80;99.90
22114;DHT22;11223;49.968;9.062;2023-04-06T02:34:51;-0.90;99.90
22114;DHT22;11223;49.968;9.062;2023-04-06T02:37:17;-0.90;99.90
22114;DHT22;11223;49.968;9.062;2023-04-06T02:39:42;-0.90;99.90
22114;DHT22;11223;49.968;9.062;2023-04-06T02:42:08;-0.90;99.90
22114;DHT22;11223;49.968;9.062;2023-04-06T02:44:34;-0.90;99.90
22114;DHT22;11223;49.968;9.062;2023-04-06T02:47:00;-0.90;99.90
22114;DHT22;11223;49.968;9.062;2023-04-06T02:49:25;-0.90;99.90
22114;DHT22;11223;49.968;9.062;2023-04-06T02:51:51;-1.00;99.90
22114;DHT22;11223;49.968;9.062;2023-04-06T02:54:16;-1.00;99.90
22114;DHT22;11223;49.968;9.062;2023-04-06T02:56:42;-1.00;99.90
22114;DHT22;11223;49.968;9.062;2023-04-06T02:59:08;-1.10;99.90
22114;DHT22;11223;49.968;9.062;2023-04-06T03:01:33;-1.00;99.90
22114;DHT22;11223;49.968;9.062;2023-04-06T03:03:59;-1.10;99.90
22114;DHT22;11223;49.968;9.062;2023-04-06T03:06:25;-1.10;99.90
22114;DHT22;11223;49.968;9.062;2023-04-06T03:08:51;-1.10;99.90
22114;DHT22;11223;49.968;9.062;2023-04-06T03:11:17;-1.20;99.90
22114;DHT22;11223;49.968;9.062;2023-04-06T03:13:42;-1.20;99.90
22114;DHT22;11223;49.968;9.062;2023-04-06T03:16:08;-1.10;99.90
22114;DHT22;11223;49.968;9.062;2023-04-06T03:18:33;-1.20;99.90
22114;DHT22;11223;49.968;9.062;2023-04-06T03:20:59;-1.20;99.90
22114;DHT22;11223;49.968;9.062;2023-04-06T03:23:25;-1.20;99.90
22114;DHT22;11223;49.968;9.062;2023-04-06T03:25:51;-1.20;99.90
22114;DHT22;11223;49.968;9.062;2023-04-06T03:28:17;-1.20;99.90
22114;DHT22;11223;49.968;9.062;2023-04-06T03:30:42;-1.20;99.90
22114;DHT22;11223;49.968;9.062;2023-04-06T03:33:08;-1.30;99.90
22114;DHT22;11223;49.968;9.062;2023-04-06T03:35:33;-1.20;99.90
22114;DHT22;11223;49.968;9.062;2023-04-06T03:37:59;-1.20;99.90
22114;DHT22;11223;49.968;9.062;2023-04-06T03:40:25;-1.30;99.90
22114;DHT22;11223;49.968;9.062;2023-04-06T03:42:50;-1.30;99.90
22114;DHT22;11223;49.968;9.062;2023-04-06T03:45:16;-1.30;99.90
22114;DHT22;11223;49.968;9.062;2023-04-06T03:47:41;-1.30;99.90
22114;DHT22;11223;49.968;9.062;2023-04-06T03:50:07;-1.30;99.90
22114;DHT22;11223;49.968;9.062;2023-04-06T03:52:34;-1.30;99.90
22114;DHT22;11223;49.968;9.062;2023-04-06T03:54:59;-1.30;99.90
22114;DHT22;11223;49.968;9.062;2023-04-06T03:57:25;-1.30;99.90
22114;DHT22;11223;49.968;9.062;2023-04-06T03:59:50;-1.40;99.90
22114;DHT22;11223;49.968;9.062;2023-04-06T04:02:16;-1.40;99.90
22114;DHT22;11223;49.968;9.062;2023-04-06T04:04:42;-1.40;99.90
22114;DHT22;11223;49.968;9.062;2023-04-06T04:07:07;-1.40;99.90
22114;DHT22;11223;49.968;9.062;2023-04-06T04:09:33;-1.40;99.90
22114;DHT22;11223;49.968;9.062;2023-04-06T04:11:58;-1.40;99.90
22114;DHT22;11223;49.968;9.062;2023-04-06T04:14:24;-1.40;99.90
22114;DHT22;11223;49.968;9.062;2023-04-06T04:16:50;-1.40;99.90
22114;DHT22;11223;49.968;9.062;2023-04-06T04:19:16;-1.40;99.90
22114;DHT22;11223;49.968;9.062;2023-04-06T04:21:43;-1.40;99.90
22114;DHT22;11223;49.968;9.062;2023-04-06T04:24:10;-1.40;99.90
22114;DHT22;11223;49.968;9.062;2023-04-06T04:26:35;-1.40;99.90
22114;DHT22;11223;49.968;9.062;2023-04-06T04:29:01;-1.40;99.90
22114;DHT22;11223;49.968;9.062;2023-04-06T04:31:26;-1.30;99.90
22114;DHT22;11223;49.968;9.062;2023-04-06T04:33:52;-1.30;99.90
22114;DHT22;11223;49.968;9.062;2023-04-06T04:36:17;-1.30;99.90
22114;DHT22;11223;49.968;9.062;2023-04-06T04:38:43;-1.30;99.90
22114;DHT22;11223;49.968;9.062;2023-04-06T04:41:08;-1.40;99.90
22114;DHT22;11223;49.968;9.062;2023-04-06T04:43:34;-1.40;99.90
22114;DHT22;11223;49.968;9.062;2023-04-06T04:46:00;-1.40;99.90
22114;DHT22;11223;49.968;9.062;2023-04-06T04:48:25;-1.30;99.90
22114;DHT22;11223;49.968;9.062;2023-04-06T04:50:51;-1.30;99.90
22114;DHT22;11223;49.968;9.062;2023-04-06T04:53:17;-1.20;99.90
22114;DHT22;11223;49.968;9.062;2023-04-06T04:55:42;-1.30;99.90
22114;DHT22;11223;49.968;9.062;2023-04-06T04:58:08;-1.30;99.90
22114;DHT22;11223;49.968;9.062;2023-04-06T05:00:34;-1.30;99.90
22114;DHT22;11223;49.968;9.062;2023-04-06T05:03:00;-1.20;99.90
22114;DHT22;11223;49.968;9.062;2023-04-06T05:05:26;-1.20;99.90
22114;DHT22;11223;49.968;9.062;2023-04-06T05:07:51;-1.20;99.90
22114;DHT22;11223;49.968;9.062;2023-04-06T05:10:17;-1.10;99.90
22114;DHT22;11223;49.968;9.062;2023-04-06T05:12:42;-1.10;99.90
22114;DHT22;11223;49.968;9.062;2023-04-06T05:15:09;-1.10;99.90
22114;DHT22;11223;49.968;9.062;2023-04-06T05:17:35;-1.00;99.90
22114;DHT22;11223;49.968;9.062;2023-04-06T05:20:01;-0.90;99.90
22114;DHT22;11223;49.968;9.062;2023-04-06T05:22:26;-0.90;99.90
22114;DHT22;11223;49.968;9.062;2023-04-06T05:24:52;-0.80;99.90
22114;DHT22;11223;49.968;9.062;2023-04-06T05:27:17;-0.80;99.90
22114;DHT22;11223;49.968;9.062;2023-04-06T05:29:43;-0.70;99.90
22114;DHT22;11223;49.968;9.062;2023-04-06T05:32:08;-0.70;99.90
22114;DHT22;11223;49.968;9.062;2023-04-06T05:34:34;-0.60;99.90
22114;DHT22;11223;49.968;9.062;2023-04-06T05:37:00;-0.60;99.90
22114;DHT22;11223;49.968;9.062;2023-04-06T05:39:25;-0.60;99.90
22114;DHT22;11223;49.968;9.062;2023-04-06T05:41:51;-0.50;99.90
22114;DHT22;11223;49.968;9.062;2023-04-06T05:44:17;-0.40;99.90
22114;DHT22;11223;49.968;9.062;2023-04-06T05:46:42;-0.40;99.90
22114;DHT22;11223;49.968;9.062;2023-04-06T05:49:08;-0.30;99.90
22114;DHT22;11223;49.968;9.062;2023-04-06T05:51:33;-0.20;99.90
22114;DHT22;11223;49.968;9.062;2023-04-06T05:53:59;-0.10;99.90
22114;DHT22;11223;49.968;9.062;2023-04-06T05:56:24;0.00;99.90
22114;DHT22;11223;49.968;9.062;2023-04-06T05:58:50;0.10;99.90
22114;DHT22;11223;49.968;9.062;2023-04-06T06:01:16;0.10;99.90
22114;DHT22;11223;49.968;9.062;2023-04-06T06:03:41;0.20;99.90
22114;DHT22;11223;49.968;9.062;2023-04-06T06:06:07;0.30;99.90
22114;DHT22;11223;49.968;9.062;2023-04-06T06:08:32;0.40;99.90
22114;DHT22;11223;49.968;9.062;2023-04-06T06:10:58;0.50;99.90
22114;DHT22;11223;49.968;9.062;2023-04-06T06:13:24;0.60;99.90
22114;DHT22;11223;49.968;9.062;2023-04-06T06:15:50;0.70;99.90
22114;DHT22;11223;49.968;9.062;2023-04-06T06:18:16;0.80;99.90
22114;DHT22;11223;49.968;9.062;2023-04-06T06:20:42;0.90;99.90
22114;DHT22;11223;49.968;9.062;2023-04-06T06:23:07;1.00;99.90
22114;DHT22;11223;49.968;9.062;2023-04-06T06:25:33;1.20;99.90
22114;DHT22;11223;49.968;9.062;2023-04-06T06:27:59;1.40;99.90
22114;DHT22;11223;49.968;9.062;2023-04-06T06:30:24;1.50;99.90
22114;DHT22;11223;49.968;9.062;2023-04-06T06:32:50;1.70;99.90
22114;DHT22;11223;49.968;9.062;2023-04-06T06:35:16;1.80;99.90
22114;DHT22;11223;49.968;9.062;2023-04-06T06:37:42;2.00;99.90
22114;DHT22;11223;49.968;9.062;2023-04-06T06:40:09;2.10;99.90
22114;DHT22;11223;49.968;9.062;2023-04-06T06:42:35;2.10;99.90
22114;DHT22;11223;49.968;9.062;2023-04-06T06:45:01;2.20;99.90
22114;DHT22;11223;49.968;9.062;2023-04-06T06:47:26;2.20;99.90
22114;DHT22;11223;49.968;9.062;2023-04-06T06:49:52;2.30;99.90
22114;DHT22;11223;49.968;9.062;2023-04-06T06:52:18;2.40;99.90
22114;DHT22;11223;49.968;9.062;2023-04-06T06:54:44;2.50;99.90
22114;DHT22;11223;49.968;9.062;2023-04-06T06:57:09;2.50;99.90
22114;DHT22;11223;49.968;9.062;2023-04-06T06:59:35;2.60;99.90
22114;DHT22;11223;49.968;9.062;2023-04-06T07:02:01;2.80;99.90
22114;DHT22;11223;49.968;9.062;2023-04-06T07:04:26;3.00;99.90
22114;DHT22;11223;49.968;9.062;2023-04-06T07:06:52;3.10;99.90
22114;DHT22;11223;49.968;9.062;2023-04-06T07:09:18;3.30;99.90
22114;DHT22;11223;49.968;9.062;2023-04-06T07:11:43;3.50;99.90
22114;DHT22;11223;49.968;9.062;2023-04-06T07:14:09;3.50;99.90
22114;DHT22;11223;49.968;9.062;2023-04-06T07:16:35;3.60;99.90
22114;DHT22;11223;49.968;9.062;2023-04-06T07:19:00;3.70;99.90
22114;DHT22;11223;49.968;9.062;2023-04-06T07:21:26;3.80;99.90
22114;DHT22;11223;49.968;9.062;2023-04-06T07:23:51;3.90;99.90
22114;DHT22;11223;49.968;9.062;2023-04-06T07:26:17;4.10;99.90
22114;DHT22;11223;49.968;9.062;2023-04-06T07:28:43;4.30;99.90
22114;DHT22;11223;49.968;9.062;2023-04-06T07:31:08;4.40;99.90
22114;DHT22;11223;49.968;9.062;2023-04-06T07:33:34;4.60;99.90
22114;DHT22;11223;49.968;9.062;2023-04-06T07:36:00;4.80;99.90
22114;DHT22;11223;49.968;9.062;2023-04-06T07:38:25;5.00;99.90
22114;DHT22;11223;49.968;9.062;2023-04-06T07:40:51;5.20;99.90
22114;DHT22;11223;49.968;9.062;2023-04-06T07:43:16;6.20;99.90
22114;DHT22;11223;49.968;9.062;2023-04-06T07:45:42;7.40;99.90
22114;DHT22;11223;49.968;9.062;2023-04-06T07:48:08;8.30;99.90
22114;DHT22;11223;49.968;9.062;2023-04-06T07:50:33;8.80;95.30
22114;DHT22;11223;49.968;9.062;2023-04-06T07:52:59;8.80;93.40
22114;DHT22;11223;49.968;9.062;2023-04-06T07:55:25;8.40;93.00
22114;DHT22;11223;49.968;9.062;2023-04-06T07:57:51;8.20;93.40
22114;DHT22;11223;49.968;9.062;2023-04-06T08:00:17;8.00;93.40
22114;DHT22;11223;49.968;9.062;2023-04-06T08:02:42;7.90;93.80
22114;DHT22;11223;49.968;9.062;2023-04-06T08:05:08;7.90;92.70
22114;DHT22;11223;49.968;9.062;2023-04-06T08:07:34;7.90;93.20
22114;DHT22;11223;49.968;9.062;2023-04-06T08:10:01;8.00;92.50
22114;DHT22;11223;49.968;9.062;2023-04-06T08:12:26;8.20;92.40
22114;DHT22;11223;49.968;9.062;2023-04-06T08:14:52;8.40;90.70
22114;DHT22;11223;49.968;9.062;2023-04-06T08:17:17;8.50;89.90
22114;DHT22;11223;49.968;9.062;2023-04-06T08:19:43;8.70;88.80
22114;DHT22;11223;49.968;9.062;2023-04-06T08:22:10;8.80;88.10
22114;DHT22;11223;49.968;9.062;2023-04-06T08:24:35;8.90;87.60
22114;DHT22;11223;49.968;9.062;2023-04-06T08:27:01;9.10;86.60
22114;DHT22;11223;49.968;9.062;2023-04-06T08:29:26;9.20;86.20
22114;DHT22;11223;49.968;9.062;2023-04-06T08:31:52;9.40;86.20
22114;DHT22;11223;49.968;9.062;2023-04-06T08:34:17;9.50;86.00
22114;DHT22;11223;49.968;9.062;2023-04-06T08:36:43;9.70;84.00
22114;DHT22;11223;49.968;9.062;2023-04-06T08:39:09;9.90;85.00
22114;DHT22;11223;49.968;9.062;2023-04-06T08:41:34;10.10;83.20
22114;DHT22;11223;49.968;9.062;2023-04-06T08:44:01;10.30;80.70
22114;DHT22;11223;49.968;9.062;2023-04-06T08:46:28;10.50;78.80
22114;DHT22;11223;49.968;9.062;2023-04-06T08:48:56;10.70;78.50
22114;DHT22;11223;49.968;9.062;2023-04-06T08:51:23;10.80;77.00
22114;DHT22;11223;49.968;9.062;2023-04-06T08:53:53;11.00;77.50
22114;DHT22;11223;49.968;9.062;2023-04-06T08:56:20;11.20;74.10
22114;DHT22;11223;49.968;9.062;2023-04-06T08:58:47;11.30;72.30
22114;DHT22;11223;49.968;9.062;2023-04-06T09:01:13;11.30;73.50
22114;DHT22;11223;49.968;9.062;2023-04-06T09:03:40;11.50;71.30
22114;DHT22;11223;49.968;9.062;2023-04-06T09:06:07;11.70;70.60
22114;DHT22;11223;49.968;9.062;2023-04-06T09:08:34;11.80;70.50
22114;DHT22;11223;49.968;9.062;2023-04-06T09:11:03;11.80;70.40
22114;DHT22;11223;49.968;9.062;2023-04-06T09:13:29;11.90;68.60
22114;DHT22;11223;49.968;9.062;2023-04-06T09:16:02;12.10;68.10
22114;DHT22;11223;49.968;9.062;2023-04-06T09:18:29;12.30;68.00
22114;DHT22;11223;49.968;9.062;2023-04-06T09:21:03;12.50;68.20
22114;DHT22;11223;49.968;9.062;2023-04-06T09:23:29;12.70;65.60
22114;DHT22;11223;49.968;9.062;2023-04-06T09:26:12;12.80;65.10
22114;DHT22;11223;49.968;9.062;2023-04-06T09:28:45;12.90;65.40
22114;DHT22;11223;49.968;9.062;2023-04-06T09:31:16;12.90;64.70
22114;DHT22;11223;49.968;9.062;2023-04-06T09:33:45;12.90;64.30
22114;DHT22;11223;49.968;9.062;2023-04-06T09:36:11;13.10;63.60
22114;DHT22;11223;49.968;9.062;2023-04-06T09:38:38;13.30;63.60
22114;DHT22;11223;49.968;9.062;2023-04-06T09:41:04;13.60;63.80
22114;DHT22;11223;49.968;9.062;2023-04-06T09:43:30;13.90;61.50
22114;DHT22;11223;49.968;9.062;2023-04-06T09:45:56;14.10;60.90
22114;DHT22;11223;49.968;9.062;2023-04-06T09:48:24;14.20;58.80
22114;DHT22;11223;49.968;9.062;2023-04-06T09:50:53;14.20;58.70
22114;DHT22;11223;49.968;9.062;2023-04-06T09:53:26;14.40;60.00
22114;DHT22;11223;49.968;9.062;2023-04-06T09:55:57;14.40;62.30
22114;DHT22;11223;49.968;9.062;2023-04-06T09:58:26;14.30;56.00
22114;DHT22;11223;49.968;9.062;2023-04-06T10:01:07;14.30;58.70
22114;DHT22;11223;49.968;9.062;2023-04-06T10:03:52;14.30;56.70
22114;DHT22;11223;49.968;9.062;2023-04-06T10:06:22;14.50;58.90
22114;DHT22;11223;49.968;9.062;2023-04-06T10:08:49;14.80;57.50
22114;DHT22;11223;49.968;9.062;2023-04-06T10:11:15;15.00;55.70
22114;DHT22;11223;49.968;9.062;2023-04-06T10:13:41;15.10;55.30
22114;DHT22;11223;49.968;9.062;2023-04-06T10:16:08;15.10;56.20
22114;DHT22;11223;49.968;9.062;2023-04-06T10:18:34;15.30;55.50
22114;DHT22;11223;49.968;9.062;2023-04-06T10:21:06;15.50;56.50
22114;DHT22;11223;49.968;9.062;2023-04-06T10:26:03;15.70;54.30
22114;DHT22;11223;49.968;9.062;2023-04-06T10:28:34;15.80;54.20
22114;DHT22;11223;49.968;9.062;2023-04-06T10:31:04;15.90;53.60
22114;DHT22;11223;49.968;9.062;2023-04-06T10:33:30;15.90;53.70
22114;DHT22;11223;49.968;9.062;2023-04-06T10:35:55;16.00;55.60
22114;DHT22;11223;49.968;9.062;2023-04-06T10:38:32;16.20;54.10
22114;DHT22;11223;49.968;9.062;2023-04-06T10:41:04;16.40;53.40
22114;DHT22;11223;49.968;9.062;2023-04-06T10:43:33;16.50;56.20
22114;DHT22;11223;49.968;9.062;2023-04-06T10:46:01;16.80;51.70
22114;DHT22;11223;49.968;9.062;2023-04-06T10:48:43;16.90;51.60
22114;DHT22;11223;49.968;9.062;2023-04-06T10:51:11;17.10;50.40
22114;DHT22;11223;49.968;9.062;2023-04-06T10:53:37;17.00;50.30
22114;DHT22;11223;49.968;9.062;2023-04-06T10:56:04;16.90;49.10
22114;DHT22;11223;49.968;9.062;2023-04-06T10:58:30;17.10;49.60
22114;DHT22;11223;49.968;9.062;2023-04-06T11:00:56;17.30;50.20
22114;DHT22;11223;49.968;9.062;2023-04-06T11:03:22;17.60;48.80
22114;DHT22;11223;49.968;9.062;2023-04-06T11:05:49;17.90;50.00
22114;DHT22;11223;49.968;9.062;2023-04-06T11:08:32;18.40;49.20
22114;DHT22;11223;49.968;9.062;2023-04-06T11:11:24;18.40;47.80
22114;DHT22;11223;49.968;9.062;2023-04-06T11:13:55;18.30;50.20
22114;DHT22;11223;49.968;9.062;2023-04-06T11:16:26;18.50;49.30
22114;DHT22;11223;49.968;9.062;2023-04-06T11:19:03;18.90;48.10
22114;DHT22;11223;49.968;9.062;2023-04-06T11:21:45;19.40;46.60
22114;DHT22;11223;49.968;9.062;2023-04-06T11:24:15;20.00;46.30
22114;DHT22;11223;49.968;9.062;2023-04-06T11:26:53;20.40;43.80
22114;DHT22;11223;49.968;9.062;2023-04-06T11:29:23;20.20;43.60
22114;DHT22;11223;49.968;9.062;2023-04-06T11:32:03;20.30;44.30
22114;DHT22;11223;49.968;9.062;2023-04-06T11:34:30;20.40;43.20
22114;DHT22;11223;49.968;9.062;2023-04-06T11:36:58;20.60;43.90
22114;DHT22;11223;49.968;9.062;2023-04-06T11:39:26;20.90;42.20
22114;DHT22;11223;49.968;9.062;2023-04-06T11:41:54;21.20;41.60
22114;DHT22;11223;49.968;9.062;2023-04-06T11:47:09;22.20;41.10
22114;DHT22;11223;49.968;9.062;2023-04-06T11:49:38;22.50;39.30
22114;DHT22;11223;49.968;9.062;2023-04-06T11:52:21;23.20;39.30
22114;DHT22;11223;49.968;9.062;2023-04-06T11:54:48;23.60;38.90
22114;DHT22;11223;49.968;9.062;2023-04-06T11:57:16;24.20;39.60
22114;DHT22;11223;49.968;9.062;2023-04-06T11:59:42;24.70;38.20
22114;DHT22;11223;49.968;9.062;2023-04-06T12:02:08;24.70;37.10
22114;DHT22;11223;49.968;9.062;2023-04-06T12:04:34;24.60;36.50
22114;DHT22;11223;49.968;9.062;2023-04-06T12:07:00;24.00;35.50
22114;DHT22;11223;49.968;9.062;2023-04-06T12:09:25;23.00;36.60
22114;DHT22;11223;49.968;9.062;2023-04-06T12:11:51;22.10;39.10
22114;DHT22;11223;49.968;9.062;2023-04-06T12:14:16;21.40;39.10
22114;DHT22;11223;49.968;9.062;2023-04-06T12:16:42;21.00;38.90
22114;DHT22;11223;49.968;9.062;2023-04-06T12:19:08;20.60;38.70
22114;DHT22;11223;49.968;9.062;2023-04-06T12:21:34;20.30;38.80
22114;DHT22;11223;49.968;9.062;2023-04-06T12:24:02;20.20;40.00
22114;DHT22;11223;49.968;9.062;2023-04-06T12:26:28;20.60;38.30
22114;DHT22;11223;49.968;9.062;2023-04-06T12:28:53;20.90;39.10
22114;DHT22;11223;49.968;9.062;2023-04-06T12:31:21;20.90;40.10
22114;DHT22;11223;49.968;9.062;2023-04-06T12:33:47;21.00;40.30
22114;DHT22;11223;49.968;9.062;2023-04-06T12:36:18;21.00;37.90
22114;DHT22;11223;49.968;9.062;2023-04-06T12:38:45;20.70;38.60
22114;DHT22;11223;49.968;9.062;2023-04-06T12:41:12;20.40;39.00
22114;DHT22;11223;49.968;9.062;2023-04-06T12:43:41;20.20;39.70
22114;DHT22;11223;49.968;9.062;2023-04-06T12:46:07;19.80;41.00
22114;DHT22;11223;49.968;9.062;2023-04-06T12:48:32;19.60;39.90
22114;DHT22;11223;49.968;9.062;2023-04-06T12:50:59;19.50;41.00
22114;DHT22;11223;49.968;9.062;2023-04-06T12:53:26;19.60;40.70
22114;DHT22;11223;49.968;9.062;2023-04-06T12:55:55;20.00;41.20
22114;DHT22;11223;49.968;9.062;2023-04-06T12:58:22;20.40;40.10
22114;DHT22;11223;49.968;9.062;2023-04-06T13:00:49;20.40;39.10
22114;DHT22;11223;49.968;9.062;2023-04-06T13:03:15;20.20;37.70
22114;DHT22;11223;49.968;9.062;2023-04-06T13:05:45;19.80;38.40
22114;DHT22;11223;49.968;9.062;2023-04-06T13:08:11;19.30;39.60
22114;DHT22;11223;49.968;9.062;2023-04-06T13:10:37;18.80;38.90
22114;DHT22;11223;49.968;9.062;2023-04-06T13:13:03;18.30;38.90
22114;DHT22;11223;49.968;9.062;2023-04-06T13:15:28;18.00;41.10
22114;DHT22;11223;49.968;9.062;2023-04-06T13:17:54;17.60;41.60
22114;DHT22;11223;49.968;9.062;2023-04-06T13:20:19;17.40;41.50
22114;DHT22;11223;49.968;9.062;2023-04-06T13:22:45;17.20;43.10
22114;DHT22;11223;49.968;9.062;2023-04-06T13:25:10;17.00;42.00
22114;DHT22;11223;49.968;9.062;2023-04-06T13:27:36;16.90;42.60
22114;DHT22;11223;49.968;9.062;2023-04-06T13:30:03;16.80;42.40
22114;DHT22;11223;49.968;9.062;2023-04-06T13:32:28;16.80;43.00
22114;DHT22;11223;49.968;9.062;2023-04-06T13:34:55;16.70;41.80
22114;DHT22;11223;49.968;9.062;2023-04-06T13:37:21;16.70;40.00
22114;DHT22;11223;49.968;9.062;2023-04-06T13:39:47;16.70;42.70
22114;DHT22;11223;49.968;9.062;2023-04-06T13:42:12;17.00;41.60
22114;DHT22;11223;49.968;9.062;2023-04-06T13:44:38;17.20;42.20
22114;DHT22;11223;49.968;9.062;2023-04-06T13:47:03;17.20;42.80
22114;DHT22;11223;49.968;9.062;2023-04-06T13:49:29;17.20;41.30
22114;DHT22;11223;49.968;9.062;2023-04-06T13:51:55;17.20;43.00
22114;DHT22;11223;49.968;9.062;2023-04-06T13:54:21;17.00;42.60
22114;DHT22;11223;49.968;9.062;2023-04-06T13:56:46;16.70;41.30
22114;DHT22;11223;49.968;9.062;2023-04-06T13:59:12;16.50;40.70
22114;DHT22;11223;49.968;9.062;2023-04-06T14:01:37;16.50;41.90
22114;DHT22;11223;49.968;9.062;2023-04-06T14:04:03;16.40;43.50
22114;DHT22;11223;49.968;9.062;2023-04-06T14:06:29;16.40;42.60
22114;DHT22;11223;49.968;9.062;2023-04-06T14:08:55;16.70;42.20
22114;DHT22;11223;49.968;9.062;2023-04-06T14:11:20;17.20;42.20
22114;DHT22;11223;49.968;9.062;2023-04-06T14:13:46;17.80;41.50
22114;DHT22;11223;49.968;9.062;2023-04-06T14:16:11;18.10;39.50
22114;DHT22;11223;49.968;9.062;2023-04-06T14:18:38;18.20;40.40
22114;DHT22;11223;49.968;9.062;2023-04-06T14:21:04;18.40;40.10
22114;DHT22;11223;49.968;9.062;2023-04-06T14:23:29;18.60;40.90
22114;DHT22;11223;49.968;9.062;2023-04-06T14:26:05;18.70;39.20
22114;DHT22;11223;49.968;9.062;2023-04-06T14:28:35;18.50;39.60
22114;DHT22;11223;49.968;9.062;2023-04-06T14:31:02;18.40;40.60
22114;DHT22;11223;49.968;9.062;2023-04-06T14:33:34;18.10;41.30
22114;DHT22;11223;49.968;9.062;2023-04-06T14:36:02;17.90;41.70
22114;DHT22;11223;49.968;9.062;2023-04-06T14:38:28;17.60;42.00
22114;DHT22;11223;49.968;9.062;2023-04-06T14:40:53;17.30;43.00
22114;DHT22;11223;49.968;9.062;2023-04-06T14:43:20;17.20;41.90
22114;DHT22;11223;49.968;9.062;2023-04-06T14:45:47;16.90;41.20
22114;DHT22;11223;49.968;9.062;2023-04-06T14:48:12;16.90;43.10
22114;DHT22;11223;49.968;9.062;2023-04-06T14:50:41;16.80;41.00
22114;DHT22;11223;49.968;9.062;2023-04-06T14:53:11;17.00;42.30
22114;DHT22;11223;49.968;9.062;2023-04-06T14:55:40;17.20;39.90
22114;DHT22;11223;49.968;9.062;2023-04-06T14:58:06;17.10;41.00
22114;DHT22;11223;49.968;9.062;2023-04-06T15:00:32;16.80;42.80
22114;DHT22;11223;49.968;9.062;2023-04-06T15:02:57;16.60;42.30
22114;DHT22;11223;49.968;9.062;2023-04-06T15:05:23;16.50;42.60
22114;DHT22;11223;49.968;9.062;2023-04-06T15:07:49;16.00;41.90
22114;DHT22;11223;49.968;9.062;2023-04-06T15:10:14;15.80;43.00
22114;DHT22;11223;49.968;9.062;2023-04-06T15:12:40;15.70;44.90
22114;DHT22;11223;49.968;9.062;2023-04-06T15:15:06;15.60;45.70
22114;DHT22;11223;49.968;9.062;2023-04-06T15:17:31;15.60;44.70
22114;DHT22;11223;49.968;9.062;2023-04-06T15:19:57;15.60;44.20
22114;DHT22;11223;49.968;9.062;2023-04-06T15:22:22;15.50;44.10
22114;DHT22;11223;49.968;9.062;2023-04-06T15:24:48;15.30;45.70
22114;DHT22;11223;49.968;9.062;2023-04-06T15:27:13;15.30;46.60
22114;DHT22;11223;49.968;9.062;2023-04-06T15:29:39;15.40;47.20
22114;DHT22;11223;49.968;9.062;2023-04-06T15:32:05;15.50;47.50
22114;DHT22;11223;49.968;9.062;2023-04-06T15:34:31;15.30;45.30